Overview Statistics Trail Chart Weather Telemetry Raw packets
 

This is the latest recevied weather packets stored in our database for station/object KJ5FA-10. If no packets are shown the sender has not sent any weather packets the latest 10 day(s).

<< 8 9 10 11 12 13 14 >>
Time Temp. Humidity Pressure Rain* Wind** Luminosity Snow
1788281850 34.44° C 47% 1019 hPa 0 mm - - -
1788280950 35° C 48% 1019.2 hPa 0 mm - - -
1788280050 33.89° C 50% 1019.2 hPa 0 mm - - -
1788279150 32.78° C 52% 1019.4 hPa 0 mm - - -
1788278250 32.22° C 55% 1019.5 hPa 0 mm - - -
1788277350 32.22° C 57% 1019.5 hPa 0 mm - - -
1788276450 31.11° C 60% 1019.5 hPa 0 mm - - -
1788275550 31.11° C 60% 1019.5 hPa 0 mm - - -
1788272851 28.89° C 67% 1019.7 hPa 0 mm - - -
1788271950 28.89° C 71% 1019.8 hPa 0 mm - - -
1788271049 27.78° C 75% 1019.8 hPa 0 mm - - -
1788270151 26.67° C 79% 1020 hPa 0 mm - - -
1788269250 25.56° C 84% 1019.7 hPa 0 mm - - -
1788268349 25° C 85% 1019.9 hPa 0 mm - - -
1788267449 23.89° C 88% 1020 hPa 0 mm - - -
1788266549 23.89° C 90% 1019.6 hPa 0 mm - - -
1788265650 22.78° C 92% 1019.6 hPa 0 mm - - -
1788264749 22.78° C 92% 1019.4 hPa 0 mm - - -
1788263850 22.78° C 92% 1019.2 hPa 0 mm - - -
1788262050 22.78° C 92% 1018.8 hPa 0 mm - - -
1788261150 22.78° C 92% 1018.8 hPa 0 mm - - -
1788259349 23.33° C 92% 1018.5 hPa 0 mm - - -
1788258449 23.33° C 92% 1018.5 hPa 0 mm - - -
1788257549 23.33° C 91% 1018.4 hPa 0 mm - - -
1788256649 23.33° C 91% 1018.2 hPa 0 mm - - -

* Rain latest hour (hover to see other rain measurements)
** Current wind speed in m/s (hover to see current wind gust speed)